createdAt,value
2019-02-04T09:13:03.164Z,20.94
2019-02-04T09:14:08.755Z,20.75
2019-02-04T09:15:16.422Z,20.62
2019-02-04T09:16:21.986Z,20.56
2019-02-04T09:18:45.095Z,10.63
2019-02-04T09:19:50.522Z,7.62
2019-02-04T09:20:55.974Z,5.44
2019-02-04T09:22:01.428Z,4.19
2019-02-04T09:23:06.919Z,3.25
2019-02-04T09:24:12.972Z,2.81
2019-02-04T09:25:24.148Z,2.50
2019-02-04T09:36:00.263Z,1.87
2019-02-04T09:46:05.938Z,2.00
2019-02-04T09:56:11.791Z,2.12
2019-02-04T10:06:17.289Z,2.25
2019-02-04T10:16:22.866Z,2.31
2019-02-04T10:29:02.821Z,18.37
2019-02-04T10:39:09.125Z,18.94
2019-02-04T10:49:14.582Z,13.69
2019-02-04T10:59:20.063Z,13.56
2019-02-04T11:09:27.254Z,13.56
2019-02-04T11:19:32.695Z,13.13
2019-02-04T11:29:38.252Z,13.25
2019-02-04T11:39:44.861Z,13.38
2019-02-04T11:49:50.383Z,13.19
2019-02-04T11:59:56.288Z,13.25
2019-02-04T12:10:01.731Z,13.69
2019-02-04T12:20:12.072Z,13.75
2019-02-04T12:30:39.636Z,13.94
2019-02-04T12:40:45.185Z,13.69
2019-02-04T12:50:50.602Z,13.75
2019-02-04T13:00:56.058Z,13.62
2019-02-04T13:11:01.515Z,13.81
2019-02-04T13:21:07.037Z,13.56
2019-02-04T13:31:12.547Z,13.88
2019-02-04T13:41:18.304Z,13.69
2019-02-04T13:51:23.734Z,13.75
2019-02-04T14:01:29.171Z,13.81
2019-02-04T14:11:35.178Z,13.94
2019-02-04T14:21:40.575Z,13.94
2019-02-04T14:31:46.030Z,14.00
2019-02-04T14:41:50.885Z,13.81
2019-02-04T14:52:23.475Z,13.88
2019-02-04T15:02:37.008Z,13.88
2019-02-04T15:12:53.178Z,13.75
2019-02-04T15:23:27.166Z,13.62
2019-02-04T15:33:49.169Z,13.69
2019-02-04T15:44:14.462Z,13.62
2019-02-04T15:54:19.870Z,13.88
2019-02-04T16:04:34.053Z,14.87
2019-02-04T16:14:39.562Z,15.19
2019-02-04T16:24:45.005Z,15.13
2019-02-04T16:34:50.932Z,15.25
2019-02-04T16:44:56.444Z,15.06
2019-02-04T16:55:01.943Z,15.25
2019-02-04T17:05:12.055Z,15.19
2019-02-04T17:15:17.692Z,15.06
2019-02-04T17:25:22.924Z,15.19
2019-02-04T17:35:28.491Z,15.13
2019-02-04T17:45:34.015Z,15.25
2019-02-04T17:55:39.182Z,15.31
2019-02-04T18:05:44.506Z,15.38
2019-02-04T18:15:50.736Z,15.38
2019-02-04T18:25:56.239Z,15.44
2019-02-04T18:36:01.621Z,15.50
2019-02-04T18:46:07.216Z,15.25
2019-02-04T18:56:13.201Z,15.38
2019-02-04T19:06:18.845Z,15.13
2019-02-04T19:16:24.957Z,15.19
2019-02-04T19:26:29.898Z,15.19
2019-02-04T19:36:35.497Z,15.00
2019-02-04T19:46:41.220Z,14.87
2019-02-04T19:56:46.870Z,14.87
2019-02-04T20:06:52.629Z,14.94
